Time;durP1;ratioP1;P1;durP2;ratioP2;P2;SDS_P1;SDS_P2;PMS_P1;PMS_P2;Temp;Humidity;BMP_temperature;BMP_pressure;BME280_temperature;BME280_humidity;BME280_pressure;Samples;Min_cycle;Max_cycle;Signal;HPM_P1;HPM_P2
2022/01/12 00:00:17;;;;;;;32.78;29.90;;;;;;;;;;5014108;28;20205;-85
2022/01/12 00:02:45;;;;;;;32.53;29.98;;;;;;;;;;5013843;28;20618;-86
2022/01/12 00:05:13;;;;;;;30.23;27.73;;;;;;;;;;5013088;28;20231;-86
2022/01/12 00:07:40;;;;;;;31.85;29.13;;;;;;;;;;5012725;28;20235;-86
2022/01/12 00:10:08;;;;;;;32.95;30.17;;;;;;;;;;5012711;28;20245;-86
2022/01/12 00:12:35;;;;;;;32.28;29.33;;;;;;;;;;5013260;28;20202;-85
2022/01/12 00:15:03;;;;;;;30.50;27.80;;;;;;;;;;5013322;28;20186;-86
2022/01/12 00:17:32;;;;;;;30.83;28.00;;;;;;;;;;5016789;28;20198;-84
2022/01/12 00:19:59;;;;;;;29.10;26.98;;;;;;;;;;5017805;28;20194;-86
2022/01/12 00:22:28;;;;;;;28.42;25.95;;;;;;;;;;5017743;28;20190;-86
2022/01/12 00:25:12;;;;;;;28.95;26.25;;;;;;;;;;5017137;28;20229;-85
2022/01/12 00:33:12;;;;;;;29.45;27.13;;;;;;;;;;5002718;28;20568;-85
2022/01/12 00:35:40;;;;;;;29.10;26.95;;;;;;;;;;5017127;28;20586;-86
2022/01/12 00:38:07;;;;;;;30.73;28.42;;;;;;;;;;5017470;28;20233;-86
2022/01/12 00:40:35;;;;;;;29.98;27.55;;;;;;;;;;5017628;28;20717;-85
2022/01/12 00:43:03;;;;;;;29.55;27.27;;;;;;;;;;5016837;28;20676;-85
2022/01/12 00:45:31;;;;;;;28.33;25.92;;;;;;;;;;5017236;28;20311;-85
2022/01/12 00:47:58;;;;;;;30.00;27.75;;;;;;;;;;5017013;28;20211;-86
2022/01/12 00:50:27;;;;;;;29.63;27.50;;;;;;;;;;5016860;28;20695;-85
2022/01/12 00:52:54;;;;;;;28.88;26.48;;;;;;;;;;5016876;28;20223;-86
2022/01/12 00:55:22;;;;;;;28.13;25.42;;;;;;;;;;5016744;28;20194;-88
2022/01/12 00:57:51;;;;;;;29.05;26.65;;;;;;;;;;5016885;28;20195;-84
2022/01/12 01:00:18;;;;;;;28.88;26.77;;;;;;;;;;5017036;28;20225;-86
2022/01/12 01:02:45;;;;;;;28.38;25.92;;;;;;;;;;5017119;28;20195;-86
2022/01/12 01:05:15;;;;;;;30.48;27.80;;;;;;;;;;5016694;28;20215;-86
2022/01/12 01:07:43;;;;;;;28.70;26.63;;;;;;;;;;5016959;28;20241;-86
2022/01/12 01:10:15;;;;;;;29.27;26.60;;;;;;;;;;5016808;28;20634;-86
2022/01/12 01:12:42;;;;;;;29.13;27.10;;;;;;;;;;5016876;28;20282;-85
2022/01/12 01:15:15;;;;;;;33.97;30.98;;;;;;;;;;5016729;28;20203;-86
2022/01/12 01:25:58;;;;;;;29.02;26.83;;;;;;;;;;5016151;28;20218;-86
2022/01/12 01:28:25;;;;;;;28.83;26.48;;;;;;;;;;5015545;28;20198;-86
2022/01/12 01:30:53;;;;;;;27.77;25.77;;;;;;;;;;5016778;28;20191;-86
2022/01/12 01:33:21;;;;;;;27.05;25.15;;;;;;;;;;5016563;28;20554;-84
2022/01/12 01:35:54;;;;;;;29.45;27.13;;;;;;;;;;4999452;28;20270;-86
2022/01/12 01:38:23;;;;;;;30.27;27.67;;;;;;;;;;5016222;28;20555;-85
2022/01/12 01:40:51;;;;;;;27.92;25.50;;;;;;;;;;5016224;28;20210;-86
2022/01/12 01:43:25;;;;;;;33.50;31.00;;;;;;;;;;5016098;28;20285;-86
2022/01/12 01:54:09;;;;;;;26.83;24.92;;;;;;;;;;5015906;28;20306;-86
2022/01/12 01:56:36;;;;;;;27.65;25.42;;;;;;;;;;5016017;28;20210;-86
2022/01/12 01:59:03;;;;;;;27.67;25.58;;;;;;;;;;5015248;28;20225;-86
2022/01/12 02:01:31;;;;;;;27.52;25.58;;;;;;;;;;5015740;28;20191;-86
2022/01/12 02:04:01;;;;;;;29.27;26.83;;;;;;;;;;5015453;28;20191;-86
2022/01/12 02:06:29;;;;;;;28.13;25.83;;;;;;;;;;5015280;28;20790;-85
2022/01/12 02:08:57;;;;;;;26.92;25.02;;;;;;;;;;5015595;28;20643;-85
2022/01/12 02:11:29;;;;;;;28.52;26.38;;;;;;;;;;5015559;28;20205;-85
2022/01/12 02:13:56;;;;;;;28.52;26.52;;;;;;;;;;4998463;28;20195;-85
2022/01/12 02:16:30;;;;;;;28.00;26.00;;;;;;;;;;5015492;28;20194;-86
2022/01/12 02:19:18;;;;;;;28.92;26.58;;;;;;;;;;5015413;28;20623;-86
2022/01/12 02:35:47;;;;;;;26.83;24.75;;;;;;;;;;5015087;28;20710;-85
2022/01/12 02:41:01;;;;;;;27.02;24.95;;;;;;;;;;5014869;28;20197;-86
2022/01/12 02:43:41;;;;;;;27.50;25.45;;;;;;;;;;5015264;28;20196;-85
2022/01/12 02:53:38;;;;;;;27.10;25.20;;;;;;;;;;5014855;28;20197;-86
2022/01/12 02:54:30;;;;;;;26.95;24.92;;;;;;;;;;5014509;28;20221;-86
2022/01/12 02:56:58;;;;;;;25.63;23.83;;;;;;;;;;5014851;28;20624;-85
2022/01/12 02:59:25;;;;;;;26.60;24.58;;;;;;;;;;5014788;28;20231;-85
2022/01/12 03:02:20;;;;;;;26.92;24.92;;;;;;;;;;5014650;28;20199;-86
2022/01/12 03:05:04;;;;;;;27.02;25.05;;;;;;;;;;5014601;28;20293;-86
2022/01/12 03:07:36;;;;;;;28.40;25.98;;;;;;;;;;4996849;28;20234;-86
2022/01/12 03:10:06;;;;;;;28.55;26.52;;;;;;;;;;5014777;28;20199;-86
2022/01/12 03:12:33;;;;;;;26.92;24.85;;;;;;;;;;5014719;28;20190;-86
2022/01/12 03:15:01;;;;;;;27.88;25.33;;;;;;;;;;5014352;28;20527;-86
2022/01/12 03:17:28;;;;;;;26.30;24.48;;;;;;;;;;5014147;28;20321;-86
2022/01/12 03:19:55;;;;;;;26.40;24.65;;;;;;;;;;5014331;28;20213;-85
2022/01/12 03:22:23;;;;;;;26.35;24.55;;;;;;;;;;5014465;28;20194;-85
2022/01/12 03:24:50;;;;;;;26.02;24.13;;;;;;;;;;5014266;28;20538;-85
2022/01/12 03:27:21;;;;;;;26.13;24.33;;;;;;;;;;5014448;28;20219;-85
2022/01/12 03:29:51;;;;;;;26.17;24.08;;;;;;;;;;5014018;28;20224;-85
2022/01/12 03:32:25;;;;;;;25.60;23.70;;;;;;;;;;5014056;28;20230;-86
2022/01/12 03:35:05;;;;;;;25.02;23.38;;;;;;;;;;5014469;28;20601;-86
2022/01/12 03:37:42;;;;;;;25.65;23.88;;;;;;;;;;5013847;28;20188;-86
2022/01/12 03:40:10;;;;;;;27.05;25.20;;;;;;;;;;5013969;28;20230;-85
2022/01/12 03:42:40;;;;;;;24.35;22.77;;;;;;;;;;5014269;28;20277;-86
2022/01/12 03:45:08;;;;;;;24.13;22.52;;;;;;;;;;5014123;28;20194;-86
2022/01/12 03:47:35;;;;;;;24.75;23.05;;;;;;;;;;5014187;28;20318;-86
2022/01/12 03:50:02;;;;;;;25.88;24.05;;;;;;;;;;5014309;28;20597;-86
2022/01/12 03:52:30;;;;;;;25.52;23.65;;;;;;;;;;5013518;28;20602;-86
2022/01/12 03:54:57;;;;;;;25.13;23.38;;;;;;;;;;4996312;28;20213;-86
2022/01/12 03:57:25;;;;;;;25.60;23.83;;;;;;;;;;5013917;28;20702;-85
2022/01/12 03:59:53;;;;;;;26.08;24.17;;;;;;;;;;5013940;28;20222;-86
2022/01/12 04:02:21;;;;;;;24.10;22.55;;;;;;;;;;5013822;28;20195;-86
2022/01/12 04:05:08;;;;;;;24.88;22.80;;;;;;;;;;5013603;28;20194;-85
2022/01/12 04:10:20;;;;;;;24.65;22.95;;;;;;;;;;5013857;28;20189;-85
2022/01/12 04:12:48;;;;;;;25.55;23.75;;;;;;;;;;5013720;28;20234;-86
2022/01/12 04:15:17;;;;;;;25.05;23.35;;;;;;;;;;5013959;28;20202;-85
2022/01/12 04:17:44;;;;;;;24.20;22.70;;;;;;;;;;5013909;28;20196;-86
2022/01/12 04:20:12;;;;;;;25.50;23.98;;;;;;;;;;5013610;28;20266;-85
2022/01/12 04:25:25;;;;;;;23.75;22.25;;;;;;;;;;5013842;28;20255;-85
2022/01/12 04:27:53;;;;;;;24.90;23.20;;;;;;;;;;4996834;28;20192;-85
2022/01/12 04:30:22;;;;;;;25.20;23.60;;;;;;;;;;4996309;28;20573;-85
2022/01/12 04:32:49;;;;;;;24.98;23.27;;;;;;;;;;5013774;28;20194;-86
2022/01/12 04:35:19;;;;;;;25.02;23.33;;;;;;;;;;5013635;28;20195;-85
2022/01/12 04:37:47;;;;;;;24.17;22.58;;;;;;;;;;4996789;28;20288;-85
2022/01/12 04:40:14;;;;;;;26.02;24.33;;;;;;;;;;5013391;28;20639;-86
2022/01/12 04:42:41;;;;;;;25.83;24.02;;;;;;;;;;5013548;28;20203;-85
2022/01/12 04:45:19;;;;;;;25.40;23.23;;;;;;;;;;5013600;28;20210;-85
2022/01/12 04:48:01;;;;;;;26.55;24.48;;;;;;;;;;4997299;28;20325;-85
2022/01/12 04:50:30;;;;;;;25.98;23.98;;;;;;;;;;5013299;28;20277;-86
2022/01/12 04:52:58;;;;;;;25.30;23.38;;;;;;;;;;5013463;28;20188;-85
2022/01/12 04:55:25;;;;;;;27.05;25.00;;;;;;;;;;5012427;28;20666;-86
2022/01/12 04:57:53;;;;;;;25.48;23.65;;;;;;;;;;5012722;28;20238;-86
2022/01/12 05:00:22;;;;;;;25.83;23.77;;;;;;;;;;5013352;28;20196;-86
2022/01/12 05:08:35;;;;;;;25.20;23.50;;;;;;;;;;5016761;28;20250;-86
2022/01/12 05:13:48;;;;;;;28.30;26.00;;;;;;;;;;5016694;28;20200;-85
2022/01/12 05:16:16;;;;;;;26.77;24.83;;;;;;;;;;5016480;28;20290;-86
2022/01/12 05:18:46;;;;;;;25.40;23.60;;;;;;;;;;5016829;28;20192;-85
2022/01/12 05:21:14;;;;;;;26.65;24.60;;;;;;;;;;5016776;28;20194;-86
2022/01/12 05:23:41;;;;;;;26.17;24.25;;;;;;;;;;5016416;28;20660;-85
2022/01/12 05:26:09;;;;;;;26.02;24.33;;;;;;;;;;5016154;28;20225;-85
2022/01/12 05:28:38;;;;;;;26.48;24.60;;;;;;;;;;5016664;28;20207;-85
2022/01/12 05:31:06;;;;;;;25.90;24.10;;;;;;;;;;5016129;28;20649;-85
2022/01/12 05:33:34;;;;;;;26.90;24.85;;;;;;;;;;5016332;28;20191;-85
2022/01/12 05:36:04;;;;;;;27.40;25.40;;;;;;;;;;5016397;28;20197;-86
2022/01/12 05:38:32;;;;;;;26.23;24.45;;;;;;;;;;5016207;28;20284;-85
2022/01/12 05:41:01;;;;;;;27.02;25.20;;;;;;;;;;5015986;28;20202;-84
2022/01/12 05:43:30;;;;;;;26.30;24.25;;;;;;;;;;5016088;28;20258;-85
2022/01/12 05:45:59;;;;;;;26.67;24.90;;;;;;;;;;5015939;28;20189;-85
2022/01/12 05:51:28;;;;;;;25.48;23.10;;;;;;;;;;4955637;29;20370;-85
2022/01/12 05:53:55;;;;;;;24.73;22.48;;;;;;;;;;4955579;29;20268;-85
2022/01/12 05:56:23;;;;;;;24.67;22.20;;;;;;;;;;4974853;28;20205;-85
2022/01/12 05:58:50;;;;;;;24.60;22.33;;;;;;;;;;4974600;28;20231;-85
2022/01/12 06:01:18;;;;;;;24.48;22.20;;;;;;;;;;4958711;28;20244;-85
2022/01/12 06:03:45;;;;;;;24.98;22.52;;;;;;;;;;4974609;28;20205;-84
2022/01/12 06:06:12;;;;;;;24.75;22.75;;;;;;;;;;4974513;28;20687;-85
2022/01/12 06:08:41;;;;;;;26.92;24.92;;;;;;;;;;4974379;28;20236;-86
2022/01/12 06:11:08;;;;;;;26.98;24.75;;;;;;;;;;4974290;28;20275;-86
2022/01/12 06:13:36;;;;;;;26.00;24.25;;;;;;;;;;4974391;28;20250;-85
2022/01/12 06:16:03;;;;;;;26.05;24.17;;;;;;;;;;4974097;28;20299;-85
2022/01/12 06:18:31;;;;;;;25.70;23.42;;;;;;;;;;4974561;28;20634;-85
2022/01/12 06:20:58;;;;;;;24.33;22.63;;;;;;;;;;4974341;28;20198;-86
2022/01/12 06:23:25;;;;;;;26.38;24.38;;;;;;;;;;5012474;28;20206;-84
2022/01/12 06:25:54;;;;;;;26.90;24.80;;;;;;;;;;5015345;28;20210;-85
2022/01/12 06:28:37;;;;;;;26.05;24.25;;;;;;;;;;5015321;28;20192;-85
2022/01/12 06:31:12;;;;;;;26.25;24.58;;;;;;;;;;5015145;28;20266;-85
2022/01/12 06:33:40;;;;;;;26.13;24.23;;;;;;;;;;5015139;28;20203;-85
2022/01/12 06:36:08;;;;;;;26.85;24.95;;;;;;;;;;5014114;28;20199;-84
2022/01/12 06:38:36;;;;;;;27.77;25.67;;;;;;;;;;5014241;28;20191;-88
2022/01/12 06:41:05;;;;;;;28.27;25.95;;;;;;;;;;4996650;28;20553;-84
2022/01/12 06:43:32;;;;;;;28.25;26.25;;;;;;;;;;5015027;28;20196;-85
2022/01/12 06:45:59;;;;;;;27.05;25.13;;;;;;;;;;5015172;28;20209;-85
2022/01/12 06:48:27;;;;;;;26.00;24.20;;;;;;;;;;5015358;28;20233;-85
2022/01/12 06:50:54;;;;;;;27.25;25.20;;;;;;;;;;5014782;28;20293;-84
2022/01/12 06:53:21;;;;;;;27.73;25.67;;;;;;;;;;5014722;28;20191;-83
2022/01/12 06:55:49;;;;;;;27.73;25.70;;;;;;;;;;5014866;28;20190;-84
2022/01/12 06:58:17;;;;;;;27.40;25.42;;;;;;;;;;5014351;28;20230;-84
2022/01/12 07:00:45;;;;;;;27.77;25.88;;;;;;;;;;4996845;28;20207;-83
2022/01/12 07:03:13;;;;;;;28.25;25.92;;;;;;;;;;5015244;28;20536;-84
2022/01/12 07:05:40;;;;;;;27.98;25.92;;;;;;;;;;5014529;28;20204;-83
2022/01/12 07:08:08;;;;;;;27.77;25.38;;;;;;;;;;5014732;28;20596;-84
2022/01/12 07:10:35;;;;;;;27.83;25.75;;;;;;;;;;5014502;28;20198;-83
2022/01/12 07:13:02;;;;;;;28.02;25.90;;;;;;;;;;5014692;28;20195;-84
2022/01/12 07:15:31;;;;;;;27.40;25.50;;;;;;;;;;5014964;28;20199;-83
2022/01/12 07:18:03;;;;;;;29.08;26.58;;;;;;;;;;5014717;28;20198;-84
2022/01/12 07:20:31;;;;;;;29.73;27.52;;;;;;;;;;5014827;28;20640;-85
2022/01/12 07:22:58;;;;;;;40.45;36.75;;;;;;;;;;5015233;28;20206;-85
2022/01/12 07:25:25;;;;;;;39.42;35.85;;;;;;;;;;5014190;28;20198;-85
2022/01/12 07:27:53;;;;;;;36.53;33.40;;;;;;;;;;5014384;28;20241;-85
2022/01/12 07:30:22;;;;;;;31.05;28.75;;;;;;;;;;5014647;28;20209;-84
2022/01/12 07:32:51;;;;;;;34.17;31.35;;;;;;;;;;5014660;28;20655;-83
2022/01/12 07:35:19;;;;;;;32.88;30.27;;;;;;;;;;5014191;28;20191;-84
2022/01/12 07:37:46;;;;;;;36.10;30.52;;;;;;;;;;5014662;28;20195;-84
2022/01/12 07:40:14;;;;;;;32.00;29.58;;;;;;;;;;5014123;28;20194;-83
2022/01/12 07:42:41;;;;;;;29.90;27.60;;;;;;;;;;5013856;28;20195;-84
2022/01/12 07:45:09;;;;;;;30.30;28.10;;;;;;;;;;5014251;28;20192;-84
2022/01/12 07:47:36;;;;;;;29.73;27.38;;;;;;;;;;5013871;28;20225;-84
2022/01/12 07:50:06;;;;;;;28.17;25.88;;;;;;;;;;5014081;28;20197;-83
2022/01/12 07:52:33;;;;;;;29.30;27.20;;;;;;;;;;5013900;28;20207;-84
2022/01/12 07:55:00;;;;;;;29.80;27.60;;;;;;;;;;5013981;28;20214;-83
2022/01/12 07:57:28;;;;;;;28.65;26.45;;;;;;;;;;5014196;28;20202;-84
2022/01/12 07:59:55;;;;;;;28.50;26.50;;;;;;;;;;5014320;28;20644;-83
2022/01/12 08:02:23;;;;;;;30.27;27.38;;;;;;;;;;5014196;28;20206;-83
2022/01/12 08:04:50;;;;;;;29.10;26.77;;;;;;;;;;5014270;28;20675;-84
2022/01/12 08:07:19;;;;;;;29.40;26.70;;;;;;;;;;5014295;28;20260;-84
2022/01/12 08:09:46;;;;;;;29.77;27.23;;;;;;;;;;5013985;28;20195;-83
2022/01/12 08:12:14;;;;;;;28.95;26.85;;;;;;;;;;5014332;28;20194;-83
2022/01/12 08:14:41;;;;;;;29.55;27.15;;;;;;;;;;5014145;28;20191;-83
2022/01/12 08:17:08;;;;;;;29.65;27.25;;;;;;;;;;5016619;28;20273;-84
2022/01/12 08:19:37;;;;;;;29.73;27.05;;;;;;;;;;5016124;28;20214;-84
2022/01/12 08:22:05;;;;;;;28.63;26.52;;;;;;;;;;5015699;28;20240;-83
2022/01/12 08:24:34;;;;;;;29.88;27.40;;;;;;;;;;5012800;28;20653;-81
2022/01/12 08:27:02;;;;;;;30.27;27.58;;;;;;;;;;5012822;28;20210;-82
2022/01/12 08:29:29;;;;;;;31.60;29.33;;;;;;;;;;5013354;28;20199;-88
2022/01/12 08:31:57;;;;;;;30.60;28.30;;;;;;;;;;5012964;28;20191;-81
2022/01/12 08:34:24;;;;;;;32.15;29.45;;;;;;;;;;5012916;28;20200;-81
2022/01/12 08:36:52;;;;;;;32.33;29.73;;;;;;;;;;5012689;28;20259;-82
2022/01/12 08:39:19;;;;;;;36.08;32.70;;;;;;;;;;5016690;28;20197;-81
2022/01/12 08:41:48;;;;;;;34.22;31.52;;;;;;;;;;5017031;28;20294;-82
2022/01/12 08:44:16;;;;;;;35.47;32.13;;;;;;;;;;5016924;28;20266;-82
2022/01/12 08:46:43;;;;;;;35.00;31.85;;;;;;;;;;4999665;28;20198;-82
2022/01/12 08:49:11;;;;;;;35.55;31.80;;;;;;;;;;5016927;28;20206;-82
2022/01/12 08:51:39;;;;;;;36.17;32.08;;;;;;;;;;5017027;28;20257;-82
2022/01/12 08:54:06;;;;;;;36.88;32.20;;;;;;;;;;5016625;28;20655;-82
2022/01/12 08:56:35;;;;;;;36.35;32.88;;;;;;;;;;4998954;28;20281;-82
2022/01/12 08:59:04;;;;;;;36.10;32.28;;;;;;;;;;5016609;28;20219;-82
2022/01/12 09:01:32;;;;;;;35.53;31.77;;;;;;;;;;5017910;28;20198;-82
2022/01/12 09:03:59;;;;;;;35.05;31.50;;;;;;;;;;5017749;28;20286;-82
2022/01/12 09:06:26;;;;;;;36.22;31.88;;;;;;;;;;5017265;28;20223;-82
2022/01/12 09:08:54;;;;;;;35.03;31.23;;;;;;;;;;5019182;28;20219;-82
2022/01/12 09:11:21;;;;;;;34.10;31.00;;;;;;;;;;5022538;28;20200;-83
2022/01/12 09:13:48;;;;;;;33.88;30.52;;;;;;;;;;5019027;28;20215;-83
2022/01/12 09:16:17;;;;;;;34.63;31.27;;;;;;;;;;5018054;28;20662;-87
2022/01/12 09:18:45;;;;;;;34.78;31.50;;;;;;;;;;5018765;28;20657;-83
2022/01/12 09:21:12;;;;;;;36.90;32.15;;;;;;;;;;5018151;28;20211;-89
2022/01/12 09:23:39;;;;;;;36.55;31.65;;;;;;;;;;5017537;28;20198;-83
2022/01/12 09:26:07;;;;;;;36.83;32.53;;;;;;;;;;5017073;28;20599;-84
2022/01/12 09:28:34;;;;;;;38.03;33.63;;;;;;;;;;5017388;28;20256;-84
2022/01/12 09:31:02;;;;;;;37.15;33.15;;;;;;;;;;5018388;28;20199;-84
2022/01/12 09:33:31;;;;;;;39.15;32.78;;;;;;;;;;5018853;28;20190;-84
2022/01/12 09:35:58;;;;;;;39.83;33.35;;;;;;;;;;5017673;28;20207;-84
2022/01/12 09:38:26;;;;;;;47.20;33.38;;;;;;;;;;5000217;28;20654;-84
2022/01/12 09:40:56;;;;;;;41.83;35.15;;;;;;;;;;5017411;28;20192;-84
2022/01/12 09:43:26;;;;;;;42.10;32.58;;;;;;;;;;5017690;28;20193;-84
2022/01/12 09:45:53;;;;;;;39.75;32.72;;;;;;;;;;5016634;28;20199;-84
2022/01/12 09:48:23;;;;;;;36.55;32.78;;;;;;;;;;4998891;28;20227;-84
2022/01/12 09:50:52;;;;;;;39.58;35.13;;;;;;;;;;4998020;28;20203;-84
2022/01/12 09:53:20;;;;;;;45.53;36.28;;;;;;;;;;5016339;28;20199;-85
2022/01/12 09:55:48;;;;;;;41.47;35.47;;;;;;;;;;5016048;28;20195;-85
2022/01/12 09:58:16;;;;;;;62.33;36.40;;;;;;;;;;5016380;28;20637;-84
2022/01/12 10:00:43;;;;;;;60.63;36.28;;;;;;;;;;5016053;28;20258;-84
2022/01/12 10:03:12;;;;;;;46.88;37.05;;;;;;;;;;5015669;28;20192;-84
2022/01/12 10:05:39;;;;;;;53.10;39.92;;;;;;;;;;5017407;28;20190;-84
2022/01/12 10:08:15;;;;;;;47.15;37.45;;;;;;;;;;5017300;28;20242;-84
2022/01/12 10:10:43;;;;;;;60.35;42.20;;;;;;;;;;5015759;28;20192;-84
2022/01/12 10:13:23;;;;;;;50.67;36.25;;;;;;;;;;5015949;28;20207;-83
2022/01/12 10:15:51;;;;;;;51.33;37.75;;;;;;;;;;5015741;28;20207;-83
2022/01/12 10:18:20;;;;;;;56.92;38.40;;;;;;;;;;5018786;28;20834;-84
2022/01/12 10:20:48;;;;;;;61.90;40.35;;;;;;;;;;5017014;28;20190;-84
2022/01/12 10:23:19;;;;;;;52.35;39.28;;;;;;;;;;5017017;28;20230;-84
2022/01/12 10:25:47;;;;;;;57.67;40.90;;;;;;;;;;5024124;28;20650;-84
2022/01/12 10:28:16;;;;;;;53.25;39.60;;;;;;;;;;5021912;28;20219;-84
2022/01/12 10:30:52;;;;;;;56.90;39.53;;;;;;;;;;5002371;28;20207;-84
2022/01/12 10:33:19;;;;;;;63.92;39.60;;;;;;;;;;5017632;28;20250;-83
2022/01/12 10:35:51;;;;;;;51.30;40.15;;;;;;;;;;5016475;28;20205;-84
2022/01/12 10:38:21;;;;;;;47.22;38.50;;;;;;;;;;4998300;28;20207;-84
2022/01/12 10:40:49;;;;;;;58.60;40.80;;;;;;;;;;5015554;28;20528;-84
2022/01/12 10:43:38;;;;;;;62.17;40.90;;;;;;;;;;5015395;28;20214;-83
2022/01/12 10:46:06;;;;;;;57.30;39.30;;;;;;;;;;5009283;28;20215;-84
2022/01/12 10:48:40;;;;;;;56.13;41.03;;;;;;;;;;5014645;28;20223;-84
2022/01/12 10:51:07;;;;;;;61.25;42.15;;;;;;;;;;5014662;28;20257;-84
2022/01/12 10:53:36;;;;;;;59.15;44.17;;;;;;;;;;5015101;28;20195;-84
2022/01/12 10:56:08;;;;;;;62.13;42.88;;;;;;;;;;5015562;28;20190;-84
2022/01/12 10:58:38;;;;;;;56.25;41.72;;;;;;;;;;5016669;28;20230;-84
2022/01/12 11:01:05;;;;;;;68.15;44.88;;;;;;;;;;5016005;28;20203;-84
2022/01/12 11:03:33;;;;;;;64.55;42.95;;;;;;;;;;5015432;28;20610;-84
2022/01/12 11:06:00;;;;;;;59.33;40.42;;;;;;;;;;5014745;28;20566;-83
2022/01/12 11:08:28;;;;;;;66.25;43.42;;;;;;;;;;5015155;28;20661;-83
2022/01/12 11:10:58;;;;;;;73.90;44.33;;;;;;;;;;5014635;28;20195;-84
2022/01/12 11:13:26;;;;;;;72.07;45.10;;;;;;;;;;4997342;28;20238;-84
2022/01/12 11:15:54;;;;;;;58.75;46.60;;;;;;;;;;5015900;28;20197;-84
2022/01/12 11:18:22;;;;;;;75.00;46.53;;;;;;;;;;5001272;28;20203;-83
2022/01/12 11:20:51;;;;;;;66.93;42.70;;;;;;;;;;5018413;28;20260;-82
2022/01/12 11:23:20;;;;;;;69.15;48.15;;;;;;;;;;5016200;28;20194;-84
2022/01/12 11:25:48;;;;;;;72.28;46.85;;;;;;;;;;5014797;28;20189;-84
2022/01/12 11:28:18;;;;;;;64.07;40.95;;;;;;;;;;5014503;28;20240;-83
2022/01/12 11:30:46;;;;;;;71.07;44.20;;;;;;;;;;5014366;28;20593;-83
2022/01/12 11:33:16;;;;;;;67.25;43.85;;;;;;;;;;4997107;28;20561;-83
2022/01/12 11:35:45;;;;;;;59.67;42.28;;;;;;;;;;5014623;28;20602;-84
2022/01/12 11:38:23;;;;;;;66.85;42.40;;;;;;;;;;5014148;28;20200;-83
2022/01/12 11:40:52;;;;;;;59.65;43.72;;;;;;;;;;5013716;28;20197;-83
2022/01/12 11:43:25;;;;;;;57.15;43.83;;;;;;;;;;5013916;28;20200;-81
2022/01/12 11:46:05;;;;;;;59.45;43.40;;;;;;;;;;5014006;28;20571;-83
2022/01/12 11:48:33;;;;;;;55.55;42.88;;;;;;;;;;5014254;28;20212;-84
2022/01/12 11:51:00;;;;;;;54.53;42.58;;;;;;;;;;5014264;28;20251;-83
2022/01/12 11:53:30;;;;;;;64.50;43.45;;;;;;;;;;5014182;28;20259;-84
2022/01/12 11:56:00;;;;;;;66.93;44.80;;;;;;;;;;5013737;28;20314;-84
2022/01/12 11:58:29;;;;;;;64.20;40.97;;;;;;;;;;5014096;28;20202;-84
2022/01/12 12:00:56;;;;;;;65.28;44.90;;;;;;;;;;5014193;28;20253;-84
2022/01/12 12:03:25;;;;;;;65.18;43.85;;;;;;;;;;5014163;28;20210;-84
2022/01/12 12:05:56;;;;;;;62.83;44.78;;;;;;;;;;5015293;28;20224;-84
2022/01/12 12:08:26;;;;;;;60.05;42.95;;;;;;;;;;5014781;28;20288;-84
2022/01/12 12:10:54;;;;;;;76.88;47.35;;;;;;;;;;5014625;28;20203;-84
2022/01/12 12:13:23;;;;;;;54.85;43.50;;;;;;;;;;5018111;28;20191;-83
2022/01/12 12:15:52;;;;;;;68.00;43.50;;;;;;;;;;5017984;28;20257;-82
2022/01/12 12:18:20;;;;;;;58.67;45.03;;;;;;;;;;5017658;28;20426;-82
2022/01/12 12:20:47;;;;;;;59.88;44.25;;;;;;;;;;5017976;28;20218;-83
2022/01/12 12:23:15;;;;;;;53.10;43.83;;;;;;;;;;5019203;28;20196;-83
2022/01/12 12:25:43;;;;;;;69.32;58.03;;;;;;;;;;5020214;28;20230;-84
2022/01/12 12:28:13;;;;;;;69.00;49.45;;;;;;;;;;5018687;28;20684;-83
2022/01/12 12:30:41;;;;;;;72.10;57.20;;;;;;;;;;5019032;28;20603;-85
2022/01/12 12:33:11;;;;;;;66.72;50.78;;;;;;;;;;5018327;28;20207;-84
2022/01/12 12:35:39;;;;;;;105.20;86.10;;;;;;;;;;5020057;28;20245;-84
2022/01/12 12:38:07;;;;;;;100.10;67.43;;;;;;;;;;5010154;28;20211;-83
2022/01/12 12:40:36;;;;;;;62.95;44.92;;;;;;;;;;5024642;28;20644;-84
2022/01/12 12:43:06;;;;;;;53.80;43.05;;;;;;;;;;5024057;28;20219;-84
2022/01/12 12:45:37;;;;;;;84.88;54.97;;;;;;;;;;5022715;28;20620;-84
2022/01/12 12:48:04;;;;;;;71.32;49.30;;;;;;;;;;5021643;28;20191;-83
2022/01/12 12:50:33;;;;;;;78.97;57.22;;;;;;;;;;5023599;28;20540;-83
2022/01/12 12:53:01;;;;;;;57.00;45.45;;;;;;;;;;5007994;28;20204;-84
2022/01/12 12:55:34;;;;;;;69.93;47.13;;;;;;;;;;5022963;28;20227;-84
2022/01/12 12:58:02;;;;;;;103.50;67.53;;;;;;;;;;5022952;28;20235;-83
2022/01/12 13:00:30;;;;;;;65.72;46.25;;;;;;;;;;5022610;28;20216;-84
2022/01/12 13:02:58;;;;;;;88.05;57.20;;;;;;;;;;5022616;28;20219;-83
2022/01/12 13:05:27;;;;;;;57.63;45.83;;;;;;;;;;5022546;28;20193;-84
2022/01/12 13:07:56;;;;;;;59.38;43.42;;;;;;;;;;5022578;28;20241;-84
2022/01/12 13:10:24;;;;;;;64.95;47.95;;;;;;;;;;5021581;28;20226;-83
2022/01/12 13:12:52;;;;;;;147.65;84.82;;;;;;;;;;5022131;28;20214;-83
2022/01/12 13:15:21;;;;;;;187.60;99.35;;;;;;;;;;5023333;28;20231;-83
2022/01/12 13:17:49;;;;;;;77.30;52.35;;;;;;;;;;5021701;28;20197;-83
2022/01/12 13:23:07;;;;;;;60.15;42.63;;;;;;;;;;5020749;28;20260;-82
2022/01/12 13:25:34;;;;;;;57.00;43.90;;;;;;;;;;5018908;28;20297;-85
2022/01/12 13:28:02;;;;;;;57.08;43.88;;;;;;;;;;5019735;28;20242;-85
2022/01/12 13:30:32;;;;;;;63.03;43.80;;;;;;;;;;5019850;28;20227;-85
2022/01/12 13:33:00;;;;;;;54.57;41.50;;;;;;;;;;5021329;28;20239;-85
2022/01/12 13:35:29;;;;;;;61.75;46.28;;;;;;;;;;5004195;28;20448;-85
2022/01/12 13:37:58;;;;;;;66.15;45.60;;;;;;;;;;5018283;28;20188;-84
2022/01/12 13:40:33;;;;;;;62.70;48.53;;;;;;;;;;5018388;28;20195;-87
2022/01/12 13:43:02;;;;;;;63.95;46.63;;;;;;;;;;5001510;28;20211;-86
2022/01/12 13:45:36;;;;;;;66.32;44.30;;;;;;;;;;5001895;28;20254;-87
2022/01/12 13:48:12;;;;;;;61.30;47.03;;;;;;;;;;5022698;28;20700;-88
2022/01/12 13:50:40;;;;;;;59.35;44.63;;;;;;;;;;5004556;28;20314;-87
2022/01/12 13:53:08;;;;;;;60.30;46.15;;;;;;;;;;5027158;28;20192;-87
2022/01/12 13:55:37;;;;;;;66.35;45.15;;;;;;;;;;5033092;28;20232;-87
2022/01/12 13:58:06;;;;;;;62.30;45.20;;;;;;;;;;5026641;28;20196;-87
2022/01/12 14:00:34;;;;;;;65.20;47.90;;;;;;;;;;5020757;28;20197;-89
2022/01/12 14:03:02;;;;;;;71.35;46.00;;;;;;;;;;5017041;28;20199;-86
2022/01/12 14:05:34;;;;;;;59.03;44.58;;;;;;;;;;5016396;28;20191;-87
2022/01/12 14:08:06;;;;;;;66.50;45.10;;;;;;;;;;5018494;28;20238;-87
2022/01/12 14:10:34;;;;;;;56.72;44.70;;;;;;;;;;5015715;28;20238;-87
2022/01/12 14:13:02;;;;;;;52.85;44.15;;;;;;;;;;5017623;28;20192;-88
2022/01/12 14:15:33;;;;;;;58.72;44.10;;;;;;;;;;5016055;28;20188;-88
2022/01/12 14:18:01;;;;;;;60.90;46.60;;;;;;;;;;5016641;28;20461;-88
2022/01/12 14:20:31;;;;;;;56.33;44.50;;;;;;;;;;5017355;28;20207;-87
2022/01/12 14:22:59;;;;;;;57.13;44.28;;;;;;;;;;5018833;28;20199;-88
2022/01/12 14:25:40;;;;;;;59.85;44.03;;;;;;;;;;5019067;28;20193;-85
2022/01/12 14:28:11;;;;;;;52.88;40.08;;;;;;;;;;5018718;28;20210;-87
2022/01/12 14:30:41;;;;;;;50.85;40.47;;;;;;;;;;5001560;28;20282;-87
2022/01/12 14:33:09;;;;;;;51.42;42.35;;;;;;;;;;5017569;28;20685;-89
2022/01/12 14:35:36;;;;;;;45.78;40.90;;;;;;;;;;5016596;28;20206;-89
2022/01/12 14:38:04;;;;;;;49.72;41.72;;;;;;;;;;5018053;28;20207;-87
2022/01/12 14:40:31;;;;;;;51.95;40.25;;;;;;;;;;5017046;28;20206;-88
2022/01/12 14:43:01;;;;;;;53.75;40.38;;;;;;;;;;5016608;28;20199;-88
2022/01/12 14:45:31;;;;;;;50.28;41.17;;;;;;;;;;5018309;28;20556;-88
2022/01/12 14:48:00;;;;;;;49.60;42.28;;;;;;;;;;5004158;28;20282;-88
2022/01/12 14:50:30;;;;;;;49.33;41.05;;;;;;;;;;5019046;28;20215;-91
2022/01/12 14:52:58;;;;;;;56.63;41.92;;;;;;;;;;5015628;28;20208;-88
2022/01/12 14:55:26;;;;;;;49.88;40.60;;;;;;;;;;5015228;28;20314;-90
2022/01/12 14:57:55;;;;;;;49.63;40.38;;;;;;;;;;5014755;28;20201;-88
2022/01/12 15:00:24;;;;;;;47.75;40.90;;;;;;;;;;5015130;28;20199;-90
2022/01/12 15:02:55;;;;;;;51.08;40.33;;;;;;;;;;5015534;28;20706;-89
2022/01/12 15:05:23;;;;;;;50.33;41.33;;;;;;;;;;5015281;28;20289;-87
2022/01/12 15:07:51;;;;;;;50.72;40.58;;;;;;;;;;5012671;28;20235;-87
2022/01/12 15:10:19;;;;;;;47.15;39.17;;;;;;;;;;5015828;28;20223;-91
2022/01/12 15:12:50;;;;;;;82.72;56.28;;;;;;;;;;4999057;28;20203;-89
2022/01/12 15:15:18;;;;;;;53.80;45.88;;;;;;;;;;5015704;28;20283;-88
2022/01/12 15:17:46;;;;;;;53.53;43.40;;;;;;;;;;5015700;28;20211;-86
2022/01/12 15:20:15;;;;;;;49.95;41.72;;;;;;;;;;5016220;28;20197;-93
2022/01/12 15:22:44;;;;;;;49.85;42.25;;;;;;;;;;5016552;28;20653;-92
2022/01/12 15:25:17;;;;;;;58.33;43.47;;;;;;;;;;5017421;28;20206;-92
2022/01/12 15:27:47;;;;;;;48.63;40.88;;;;;;;;;;5015858;28;20653;-91
2022/01/12 15:30:14;;;;;;;64.45;43.53;;;;;;;;;;5018274;28;20223;-87